sensor_id;sensor_type;location;lat;lon;timestamp;P1;durP1;ratioP1;P2;durP2;ratioP2
9467;SDS011;4772;52.382;9.752;2023-11-21T00:00:35;19.30;;;8.20;;
9467;SDS011;4772;52.382;9.752;2023-11-21T00:03:01;15.50;;;8.30;;
9467;SDS011;4772;52.382;9.752;2023-11-21T00:05:29;16.93;;;8.10;;
9467;SDS011;4772;52.382;9.752;2023-11-21T00:07:55;18.93;;;8.77;;
9467;SDS011;4772;52.382;9.752;2023-11-21T00:10:21;13.97;;;7.87;;
9467;SDS011;4772;52.382;9.752;2023-11-21T00:12:47;19.20;;;8.50;;
9467;SDS011;4772;52.382;9.752;2023-11-21T00:15:13;16.53;;;8.73;;
9467;SDS011;4772;52.382;9.752;2023-11-21T00:17:39;19.93;;;9.13;;
9467;SDS011;4772;52.382;9.752;2023-11-21T00:20:06;19.63;;;9.43;;
9467;SDS011;4772;52.382;9.752;2023-11-21T00:22:33;20.00;;;9.63;;
9467;SDS011;4772;52.382;9.752;2023-11-21T00:24:59;25.27;;;10.27;;
9467;SDS011;4772;52.382;9.752;2023-11-21T00:27:25;17.53;;;8.97;;
9467;SDS011;4772;52.382;9.752;2023-11-21T00:29:51;19.83;;;9.07;;
9467;SDS011;4772;52.382;9.752;2023-11-21T00:32:17;20.33;;;10.10;;
9467;SDS011;4772;52.382;9.752;2023-11-21T00:34:43;20.27;;;10.27;;
9467;SDS011;4772;52.382;9.752;2023-11-21T00:37:09;26.00;;;10.10;;
9467;SDS011;4772;52.382;9.752;2023-11-21T00:39:35;18.20;;;9.67;;
9467;SDS011;4772;52.382;9.752;2023-11-21T00:42:01;17.13;;;9.73;;
9467;SDS011;4772;52.382;9.752;2023-11-21T00:44:30;22.80;;;10.37;;
9467;SDS011;4772;52.382;9.752;2023-11-21T00:46:56;23.57;;;10.93;;
9467;SDS011;4772;52.382;9.752;2023-11-21T00:49:22;24.23;;;10.70;;
9467;SDS011;4772;52.382;9.752;2023-11-21T00:51:48;20.83;;;10.70;;
9467;SDS011;4772;52.382;9.752;2023-11-21T00:54:14;22.87;;;10.83;;
9467;SDS011;4772;52.382;9.752;2023-11-21T00:56:42;22.67;;;11.40;;
9467;SDS011;4772;52.382;9.752;2023-11-21T00:59:08;23.63;;;12.20;;
9467;SDS011;4772;52.382;9.752;2023-11-21T01:01:34;21.43;;;11.93;;
9467;SDS011;4772;52.382;9.752;2023-11-21T01:04:00;17.47;;;10.53;;
9467;SDS011;4772;52.382;9.752;2023-11-21T01:06:26;22.83;;;11.43;;
9467;SDS011;4772;52.382;9.752;2023-11-21T01:08:52;20.30;;;11.53;;
9467;SDS011;4772;52.382;9.752;2023-11-21T01:11:18;22.00;;;11.80;;
9467;SDS011;4772;52.382;9.752;2023-11-21T01:13:44;24.80;;;12.20;;
9467;SDS011;4772;52.382;9.752;2023-11-21T01:16:10;24.63;;;12.07;;
9467;SDS011;4772;52.382;9.752;2023-11-21T01:18:37;24.37;;;12.23;;
9467;SDS011;4772;52.382;9.752;2023-11-21T01:21:03;24.47;;;12.10;;
9467;SDS011;4772;52.382;9.752;2023-11-21T01:23:29;23.43;;;13.00;;
9467;SDS011;4772;52.382;9.752;2023-11-21T01:25:55;27.73;;;13.43;;
9467;SDS011;4772;52.382;9.752;2023-11-21T01:28:22;25.60;;;12.73;;
9467;SDS011;4772;52.382;9.752;2023-11-21T01:30:48;22.03;;;12.70;;
9467;SDS011;4772;52.382;9.752;2023-11-21T01:33:14;22.10;;;12.20;;
9467;SDS011;4772;52.382;9.752;2023-11-21T01:35:41;25.63;;;12.13;;
9467;SDS011;4772;52.382;9.752;2023-11-21T01:38:07;26.03;;;13.43;;
9467;SDS011;4772;52.382;9.752;2023-11-21T01:40:33;27.10;;;13.50;;
9467;SDS011;4772;52.382;9.752;2023-11-21T01:42:59;30.13;;;14.17;;
9467;SDS011;4772;52.382;9.752;2023-11-21T01:45:28;24.83;;;13.67;;
9467;SDS011;4772;52.382;9.752;2023-11-21T01:47:56;27.53;;;13.83;;
9467;SDS011;4772;52.382;9.752;2023-11-21T01:50:23;24.67;;;13.57;;
9467;SDS011;4772;52.382;9.752;2023-11-21T01:52:49;31.47;;;14.20;;
9467;SDS011;4772;52.382;9.752;2023-11-21T01:55:16;28.53;;;14.67;;
9467;SDS011;4772;52.382;9.752;2023-11-21T01:57:43;27.07;;;15.17;;
9467;SDS011;4772;52.382;9.752;2023-11-21T02:00:10;24.40;;;14.53;;
9467;SDS011;4772;52.382;9.752;2023-11-21T02:02:41;26.20;;;14.53;;
9467;SDS011;4772;52.382;9.752;2023-11-21T02:05:08;30.17;;;15.53;;
9467;SDS011;4772;52.382;9.752;2023-11-21T02:07:35;26.80;;;15.17;;
9467;SDS011;4772;52.382;9.752;2023-11-21T02:10:01;28.43;;;14.83;;
9467;SDS011;4772;52.382;9.752;2023-11-21T02:12:27;28.63;;;15.73;;
9467;SDS011;4772;52.382;9.752;2023-11-21T02:14:53;28.73;;;15.50;;
9467;SDS011;4772;52.382;9.752;2023-11-21T02:17:20;30.30;;;16.43;;
9467;SDS011;4772;52.382;9.752;2023-11-21T02:19:46;34.23;;;16.33;;
9467;SDS011;4772;52.382;9.752;2023-11-21T02:22:16;29.57;;;16.30;;
9467;SDS011;4772;52.382;9.752;2023-11-21T02:24:42;31.93;;;16.13;;
9467;SDS011;4772;52.382;9.752;2023-11-21T02:27:08;30.13;;;15.83;;
9467;SDS011;4772;52.382;9.752;2023-11-21T02:29:35;28.97;;;15.77;;
9467;SDS011;4772;52.382;9.752;2023-11-21T02:32:01;31.13;;;16.30;;
9467;SDS011;4772;52.382;9.752;2023-11-21T02:34:27;33.53;;;17.07;;
9467;SDS011;4772;52.382;9.752;2023-11-21T02:36:53;29.60;;;16.93;;
9467;SDS011;4772;52.382;9.752;2023-11-21T02:39:19;33.20;;;17.00;;
9467;SDS011;4772;52.382;9.752;2023-11-21T02:41:47;32.80;;;17.30;;
9467;SDS011;4772;52.382;9.752;2023-11-21T02:44:13;31.47;;;16.50;;
9467;SDS011;4772;52.382;9.752;2023-11-21T02:46:39;31.07;;;17.10;;
9467;SDS011;4772;52.382;9.752;2023-11-21T02:49:05;32.47;;;16.90;;
9467;SDS011;4772;52.382;9.752;2023-11-21T02:51:32;29.97;;;17.23;;
9467;SDS011;4772;52.382;9.752;2023-11-21T02:53:59;31.67;;;17.13;;
9467;SDS011;4772;52.382;9.752;2023-11-21T02:56:27;31.90;;;17.30;;
9467;SDS011;4772;52.382;9.752;2023-11-21T02:58:56;29.97;;;16.20;;
9467;SDS011;4772;52.382;9.752;2023-11-21T03:01:22;34.37;;;18.00;;
9467;SDS011;4772;52.382;9.752;2023-11-21T03:03:52;36.00;;;16.97;;
9467;SDS011;4772;52.382;9.752;2023-11-21T03:06:21;34.10;;;18.27;;
9467;SDS011;4772;52.382;9.752;2023-11-21T03:08:48;34.67;;;18.37;;
9467;SDS011;4772;52.382;9.752;2023-11-21T03:11:14;39.80;;;19.07;;
9467;SDS011;4772;52.382;9.752;2023-11-21T03:13:40;29.40;;;17.67;;
9467;SDS011;4772;52.382;9.752;2023-11-21T03:16:08;35.27;;;17.70;;
9467;SDS011;4772;52.382;9.752;2023-11-21T03:18:34;32.90;;;18.20;;
9467;SDS011;4772;52.382;9.752;2023-11-21T03:21:00;37.53;;;19.53;;
9467;SDS011;4772;52.382;9.752;2023-11-21T03:23:26;39.07;;;18.53;;
9467;SDS011;4772;52.382;9.752;2023-11-21T03:25:52;36.17;;;18.53;;
9467;SDS011;4772;52.382;9.752;2023-11-21T03:28:18;35.33;;;17.67;;
9467;SDS011;4772;52.382;9.752;2023-11-21T03:30:44;38.73;;;18.30;;
9467;SDS011;4772;52.382;9.752;2023-11-21T03:33:10;43.07;;;19.13;;
9467;SDS011;4772;52.382;9.752;2023-11-21T03:35:36;36.73;;;19.30;;
9467;SDS011;4772;52.382;9.752;2023-11-21T03:38:04;41.27;;;19.67;;
9467;SDS011;4772;52.382;9.752;2023-11-21T03:40:30;35.87;;;18.53;;
9467;SDS011;4772;52.382;9.752;2023-11-21T03:42:56;39.00;;;20.27;;
9467;SDS011;4772;52.382;9.752;2023-11-21T03:45:22;37.43;;;20.43;;
9467;SDS011;4772;52.382;9.752;2023-11-21T03:47:49;41.13;;;21.20;;
9467;SDS011;4772;52.382;9.752;2023-11-21T03:50:15;37.60;;;20.57;;
9467;SDS011;4772;52.382;9.752;2023-11-21T03:52:41;46.33;;;21.10;;
9467;SDS011;4772;52.382;9.752;2023-11-21T03:55:07;38.07;;;19.90;;
9467;SDS011;4772;52.382;9.752;2023-11-21T03:57:33;35.73;;;19.80;;
9467;SDS011;4772;52.382;9.752;2023-11-21T04:00:00;34.47;;;19.70;;
9467;SDS011;4772;52.382;9.752;2023-11-21T04:02:29;49.03;;;22.13;;
9467;SDS011;4772;52.382;9.752;2023-11-21T04:04:56;50.83;;;23.13;;
9467;SDS011;4772;52.382;9.752;2023-11-21T04:07:22;43.03;;;22.50;;
9467;SDS011;4772;52.382;9.752;2023-11-21T04:09:49;43.43;;;21.83;;
9467;SDS011;4772;52.382;9.752;2023-11-21T04:12:15;48.63;;;22.53;;
9467;SDS011;4772;52.382;9.752;2023-11-21T04:14:41;45.60;;;21.50;;
9467;SDS011;4772;52.382;9.752;2023-11-21T04:17:07;53.57;;;23.17;;
9467;SDS011;4772;52.382;9.752;2023-11-21T04:19:33;53.50;;;23.73;;
9467;SDS011;4772;52.382;9.752;2023-11-21T04:21:59;51.27;;;23.90;;
9467;SDS011;4772;52.382;9.752;2023-11-21T04:24:25;51.87;;;23.60;;
9467;SDS011;4772;52.382;9.752;2023-11-21T04:26:51;53.60;;;24.33;;
9467;SDS011;4772;52.382;9.752;2023-11-21T04:29:17;52.00;;;25.03;;
9467;SDS011;4772;52.382;9.752;2023-11-21T04:31:43;52.37;;;23.77;;
9467;SDS011;4772;52.382;9.752;2023-11-21T04:34:09;52.63;;;25.37;;
9467;SDS011;4772;52.382;9.752;2023-11-21T04:36:35;54.80;;;25.43;;
9467;SDS011;4772;52.382;9.752;2023-11-21T04:39:01;53.57;;;25.67;;
9467;SDS011;4772;52.382;9.752;2023-11-21T04:41:27;63.33;;;27.13;;
9467;SDS011;4772;52.382;9.752;2023-11-21T04:43:53;57.50;;;25.30;;
9467;SDS011;4772;52.382;9.752;2023-11-21T04:46:19;54.43;;;25.47;;
9467;SDS011;4772;52.382;9.752;2023-11-21T04:48:45;56.87;;;25.23;;
9467;SDS011;4772;52.382;9.752;2023-11-21T04:51:11;55.17;;;23.57;;
9467;SDS011;4772;52.382;9.752;2023-11-21T04:53:37;52.33;;;23.87;;
9467;SDS011;4772;52.382;9.752;2023-11-21T04:56:04;48.70;;;23.53;;
9467;SDS011;4772;52.382;9.752;2023-11-21T04:58:30;46.63;;;23.83;;
9467;SDS011;4772;52.382;9.752;2023-11-21T05:00:57;48.37;;;23.17;;
9467;SDS011;4772;52.382;9.752;2023-11-21T05:03:24;51.40;;;24.20;;
9467;SDS011;4772;52.382;9.752;2023-11-21T05:05:50;51.97;;;22.93;;
9467;SDS011;4772;52.382;9.752;2023-11-21T05:08:16;51.57;;;24.07;;
9467;SDS011;4772;52.382;9.752;2023-11-21T05:10:44;49.43;;;22.10;;
9467;SDS011;4772;52.382;9.752;2023-11-21T05:13:09;42.10;;;21.37;;
9467;SDS011;4772;52.382;9.752;2023-11-21T05:15:36;43.30;;;21.60;;
9467;SDS011;4772;52.382;9.752;2023-11-21T05:18:03;42.07;;;20.77;;
9467;SDS011;4772;52.382;9.752;2023-11-21T05:20:29;46.17;;;22.13;;
9467;SDS011;4772;52.382;9.752;2023-11-21T05:22:55;44.03;;;21.67;;
9467;SDS011;4772;52.382;9.752;2023-11-21T05:25:21;40.20;;;20.60;;
9467;SDS011;4772;52.382;9.752;2023-11-21T05:27:47;40.03;;;20.00;;
9467;SDS011;4772;52.382;9.752;2023-11-21T05:30:13;36.70;;;19.43;;
9467;SDS011;4772;52.382;9.752;2023-11-21T05:32:39;35.97;;;19.40;;
9467;SDS011;4772;52.382;9.752;2023-11-21T05:35:09;38.53;;;19.97;;
9467;SDS011;4772;52.382;9.752;2023-11-21T05:37:40;33.07;;;17.53;;
9467;SDS011;4772;52.382;9.752;2023-11-21T05:40:06;33.73;;;17.33;;
9467;SDS011;4772;52.382;9.752;2023-11-21T05:42:33;29.67;;;16.73;;
9467;SDS011;4772;52.382;9.752;2023-11-21T05:44:59;30.73;;;16.50;;
9467;SDS011;4772;52.382;9.752;2023-11-21T05:47:42;30.67;;;15.93;;
9467;SDS011;4772;52.382;9.752;2023-11-21T05:50:08;27.10;;;14.40;;
9467;SDS011;4772;52.382;9.752;2023-11-21T05:52:40;26.17;;;14.53;;
9467;SDS011;4772;52.382;9.752;2023-11-21T05:55:06;20.87;;;12.70;;
9467;SDS011;4772;52.382;9.752;2023-11-21T05:57:34;22.40;;;13.30;;
9467;SDS011;4772;52.382;9.752;2023-11-21T06:00:04;20.83;;;12.20;;
9467;SDS011;4772;52.382;9.752;2023-11-21T06:02:40;20.70;;;12.67;;
9467;SDS011;4772;52.382;9.752;2023-11-21T06:05:07;18.50;;;12.30;;
9467;SDS011;4772;52.382;9.752;2023-11-21T06:07:33;21.50;;;13.07;;
9467;SDS011;4772;52.382;9.752;2023-11-21T06:10:00;25.77;;;13.93;;
9467;SDS011;4772;52.382;9.752;2023-11-21T06:12:28;25.17;;;14.30;;
9467;SDS011;4772;52.382;9.752;2023-11-21T06:14:54;23.63;;;13.77;;
9467;SDS011;4772;52.382;9.752;2023-11-21T06:17:20;22.67;;;13.03;;
9467;SDS011;4772;52.382;9.752;2023-11-21T06:19:47;18.60;;;12.27;;
9467;SDS011;4772;52.382;9.752;2023-11-21T06:22:13;21.20;;;13.17;;
9467;SDS011;4772;52.382;9.752;2023-11-21T06:24:39;21.93;;;13.20;;
9467;SDS011;4772;52.382;9.752;2023-11-21T06:27:07;22.53;;;13.57;;
9467;SDS011;4772;52.382;9.752;2023-11-21T06:29:33;23.87;;;14.17;;
9467;SDS011;4772;52.382;9.752;2023-11-21T06:31:59;20.60;;;12.97;;
9467;SDS011;4772;52.382;9.752;2023-11-21T06:34:25;19.57;;;13.00;;
9467;SDS011;4772;52.382;9.752;2023-11-21T06:36:52;18.73;;;12.70;;
9467;SDS011;4772;52.382;9.752;2023-11-21T06:39:18;17.10;;;11.30;;
9467;SDS011;4772;52.382;9.752;2023-11-21T06:41:47;16.83;;;10.43;;
9467;SDS011;4772;52.382;9.752;2023-11-21T06:44:13;12.20;;;8.77;;
9467;SDS011;4772;52.382;9.752;2023-11-21T06:46:39;12.87;;;7.87;;
9467;SDS011;4772;52.382;9.752;2023-11-21T06:49:07;10.20;;;8.17;;
9467;SDS011;4772;52.382;9.752;2023-11-21T06:51:33;11.13;;;7.97;;
9467;SDS011;4772;52.382;9.752;2023-11-21T06:53:59;11.27;;;8.10;;
9467;SDS011;4772;52.382;9.752;2023-11-21T06:56:25;12.13;;;8.00;;
9467;SDS011;4772;52.382;9.752;2023-11-21T06:58:51;10.60;;;7.70;;
9467;SDS011;4772;52.382;9.752;2023-11-21T07:01:19;11.53;;;7.20;;
9467;SDS011;4772;52.382;9.752;2023-11-21T07:03:45;9.77;;;7.77;;
9467;SDS011;4772;52.382;9.752;2023-11-21T07:06:11;10.47;;;7.40;;
9467;SDS011;4772;52.382;9.752;2023-11-21T07:08:37;11.83;;;7.37;;
9467;SDS011;4772;52.382;9.752;2023-11-21T07:11:03;12.50;;;8.10;;
9467;SDS011;4772;52.382;9.752;2023-11-21T07:13:30;10.67;;;6.50;;
9467;SDS011;4772;52.382;9.752;2023-11-21T07:15:57;8.77;;;6.70;;
9467;SDS011;4772;52.382;9.752;2023-11-21T07:18:23;7.67;;;6.43;;
9467;SDS011;4772;52.382;9.752;2023-11-21T07:20:49;7.40;;;5.80;;
9467;SDS011;4772;52.382;9.752;2023-11-21T07:23:15;8.17;;;6.40;;
9467;SDS011;4772;52.382;9.752;2023-11-21T07:25:41;8.53;;;6.60;;
9467;SDS011;4772;52.382;9.752;2023-11-21T07:28:08;9.63;;;6.33;;
9467;SDS011;4772;52.382;9.752;2023-11-21T07:30:34;7.50;;;6.03;;
9467;SDS011;4772;52.382;9.752;2023-11-21T07:33:00;8.77;;;6.07;;
9467;SDS011;4772;52.382;9.752;2023-11-21T07:35:26;8.93;;;6.37;;
9467;SDS011;4772;52.382;9.752;2023-11-21T07:37:52;8.23;;;6.27;;
9467;SDS011;4772;52.382;9.752;2023-11-21T07:40:18;8.23;;;6.53;;
9467;SDS011;4772;52.382;9.752;2023-11-21T07:42:44;8.13;;;6.33;;
9467;SDS011;4772;52.382;9.752;2023-11-21T07:45:10;7.97;;;6.60;;
9467;SDS011;4772;52.382;9.752;2023-11-21T07:47:40;9.93;;;6.97;;
9467;SDS011;4772;52.382;9.752;2023-11-21T07:50:06;7.33;;;6.10;;
9467;SDS011;4772;52.382;9.752;2023-11-21T07:52:32;9.13;;;7.50;;
9467;SDS011;4772;52.382;9.752;2023-11-21T07:55:01;8.20;;;6.60;;
9467;SDS011;4772;52.382;9.752;2023-11-21T07:57:27;9.37;;;7.20;;
9467;SDS011;4772;52.382;9.752;2023-11-21T07:59:53;8.90;;;7.07;;
9467;SDS011;4772;52.382;9.752;2023-11-21T08:02:20;9.13;;;7.70;;
9467;SDS011;4772;52.382;9.752;2023-11-21T08:04:46;9.30;;;7.83;;
9467;SDS011;4772;52.382;9.752;2023-11-21T08:07:14;11.27;;;8.70;;
9467;SDS011;4772;52.382;9.752;2023-11-21T08:09:41;11.00;;;8.70;;
9467;SDS011;4772;52.382;9.752;2023-11-21T08:12:09;11.70;;;9.03;;
9467;SDS011;4772;52.382;9.752;2023-11-21T08:14:36;13.43;;;9.73;;
9467;SDS011;4772;52.382;9.752;2023-11-21T08:17:04;11.47;;;9.03;;
9467;SDS011;4772;52.382;9.752;2023-11-21T08:19:29;11.73;;;9.07;;
9467;SDS011;4772;52.382;9.752;2023-11-21T08:21:56;12.47;;;9.77;;
9467;SDS011;4772;52.382;9.752;2023-11-21T08:24:24;12.57;;;9.63;;
9467;SDS011;4772;52.382;9.752;2023-11-21T08:26:50;15.63;;;10.13;;
9467;SDS011;4772;52.382;9.752;2023-11-21T08:29:17;13.87;;;10.00;;
9467;SDS011;4772;52.382;9.752;2023-11-21T08:31:43;12.77;;;10.43;;
9467;SDS011;4772;52.382;9.752;2023-11-21T08:34:12;12.70;;;10.27;;
9467;SDS011;4772;52.382;9.752;2023-11-21T08:36:44;15.13;;;10.80;;
9467;SDS011;4772;52.382;9.752;2023-11-21T08:39:10;12.53;;;10.23;;
9467;SDS011;4772;52.382;9.752;2023-11-21T08:41:38;13.57;;;10.33;;
9467;SDS011;4772;52.382;9.752;2023-11-21T08:44:04;17.57;;;10.50;;
9467;SDS011;4772;52.382;9.752;2023-11-21T08:46:33;14.07;;;10.10;;
9467;SDS011;4772;52.382;9.752;2023-11-21T08:49:01;12.33;;;9.90;;
9467;SDS011;4772;52.382;9.752;2023-11-21T08:51:27;10.90;;;9.10;;
9467;SDS011;4772;52.382;9.752;2023-11-21T08:53:53;11.97;;;9.93;;
9467;SDS011;4772;52.382;9.752;2023-11-21T08:56:24;12.13;;;9.00;;
9467;SDS011;4772;52.382;9.752;2023-11-21T08:58:50;10.87;;;8.90;;
9467;SDS011;4772;52.382;9.752;2023-11-21T09:01:16;11.73;;;9.33;;
9467;SDS011;4772;52.382;9.752;2023-11-21T09:03:42;13.07;;;9.17;;
9467;SDS011;4772;52.382;9.752;2023-11-21T09:06:08;11.00;;;8.63;;
9467;SDS011;4772;52.382;9.752;2023-11-21T09:08:35;11.23;;;8.90;;
9467;SDS011;4772;52.382;9.752;2023-11-21T09:11:01;10.40;;;8.43;;
9467;SDS011;4772;52.382;9.752;2023-11-21T09:13:27;11.37;;;8.80;;
9467;SDS011;4772;52.382;9.752;2023-11-21T09:15:54;10.30;;;8.27;;
9467;SDS011;4772;52.382;9.752;2023-11-21T09:18:20;12.87;;;9.03;;
9467;SDS011;4772;52.382;9.752;2023-11-21T09:20:46;10.10;;;7.90;;
9467;SDS011;4772;52.382;9.752;2023-11-21T09:23:12;11.17;;;8.60;;
9467;SDS011;4772;52.382;9.752;2023-11-21T09:25:38;10.77;;;8.17;;
9467;SDS011;4772;52.382;9.752;2023-11-21T09:28:05;10.10;;;8.37;;
9467;SDS011;4772;52.382;9.752;2023-11-21T09:30:34;9.43;;;8.10;;
9467;SDS011;4772;52.382;9.752;2023-11-21T09:33:01;12.20;;;8.13;;
9467;SDS011;4772;52.382;9.752;2023-11-21T09:35:27;9.67;;;8.20;;
9467;SDS011;4772;52.382;9.752;2023-11-21T09:37:53;10.33;;;8.00;;
9467;SDS011;4772;52.382;9.752;2023-11-21T09:40:23;8.73;;;7.77;;
9467;SDS011;4772;52.382;9.752;2023-11-21T09:42:50;10.73;;;8.00;;
9467;SDS011;4772;52.382;9.752;2023-11-21T09:45:26;9.30;;;7.67;;
9467;SDS011;4772;52.382;9.752;2023-11-21T09:47:54;9.27;;;7.97;;
9467;SDS011;4772;52.382;9.752;2023-11-21T09:50:20;10.20;;;6.97;;
9467;SDS011;4772;52.382;9.752;2023-11-21T09:55:29;11.73;;;7.30;;
9467;SDS011;4772;52.382;9.752;2023-11-21T09:57:57;8.93;;;7.00;;
9467;SDS011;4772;52.382;9.752;2023-11-21T10:00:23;8.50;;;6.53;;
9467;SDS011;4772;52.382;9.752;2023-11-21T10:02:49;8.03;;;6.30;;
9467;SDS011;4772;52.382;9.752;2023-11-21T10:05:18;6.90;;;6.10;;
9467;SDS011;4772;52.382;9.752;2023-11-21T10:07:47;7.70;;;6.90;;
9467;SDS011;4772;52.382;9.752;2023-11-21T10:10:13;10.80;;;7.13;;
9467;SDS011;4772;52.382;9.752;2023-11-21T10:12:40;8.00;;;6.27;;
9467;SDS011;4772;52.382;9.752;2023-11-21T10:15:08;7.33;;;6.20;;
9467;SDS011;4772;52.382;9.752;2023-11-21T10:17:35;7.00;;;5.87;;
9467;SDS011;4772;52.382;9.752;2023-11-21T10:20:08;10.77;;;6.40;;
9467;SDS011;4772;52.382;9.752;2023-11-21T10:22:41;7.53;;;5.60;;
9467;SDS011;4772;52.382;9.752;2023-11-21T10:25:08;7.97;;;5.70;;
9467;SDS011;4772;52.382;9.752;2023-11-21T10:27:34;7.00;;;6.17;;
9467;SDS011;4772;52.382;9.752;2023-11-21T10:30:01;6.83;;;5.13;;
9467;SDS011;4772;52.382;9.752;2023-11-21T10:32:29;6.93;;;4.87;;
9467;SDS011;4772;52.382;9.752;2023-11-21T10:34:58;10.87;;;5.77;;
9467;SDS011;4772;52.382;9.752;2023-11-21T10:37:34;7.03;;;5.60;;
9467;SDS011;4772;52.382;9.752;2023-11-21T10:40:00;6.37;;;5.37;;
9467;SDS011;4772;52.382;9.752;2023-11-21T10:42:27;10.93;;;5.40;;
9467;SDS011;4772;52.382;9.752;2023-11-21T10:44:55;7.47;;;5.50;;
9467;SDS011;4772;52.382;9.752;2023-11-21T10:47:21;8.17;;;5.97;;
9467;SDS011;4772;52.382;9.752;2023-11-21T10:49:48;6.43;;;5.17;;
9467;SDS011;4772;52.382;9.752;2023-11-21T10:52:14;8.23;;;5.27;;
9467;SDS011;4772;52.382;9.752;2023-11-21T10:54:42;6.17;;;5.20;;
9467;SDS011;4772;52.382;9.752;2023-11-21T10:57:08;5.50;;;5.00;;
9467;SDS011;4772;52.382;9.752;2023-11-21T10:59:35;8.10;;;5.90;;
9467;SDS011;4772;52.382;9.752;2023-11-21T11:02:02;5.57;;;5.07;;
9467;SDS011;4772;52.382;9.752;2023-11-21T11:04:29;5.43;;;4.93;;
9467;SDS011;4772;52.382;9.752;2023-11-21T11:07:02;5.77;;;5.20;;
9467;SDS011;4772;52.382;9.752;2023-11-21T11:09:28;5.93;;;5.03;;
9467;SDS011;4772;52.382;9.752;2023-11-21T11:11:59;7.13;;;5.40;;
9467;SDS011;4772;52.382;9.752;2023-11-21T11:14:26;7.20;;;5.67;;
9467;SDS011;4772;52.382;9.752;2023-11-21T11:16:53;8.57;;;5.50;;
9467;SDS011;4772;52.382;9.752;2023-11-21T11:19:24;6.27;;;5.30;;
9467;SDS011;4772;52.382;9.752;2023-11-21T11:21:59;9.43;;;5.50;;
9467;SDS011;4772;52.382;9.752;2023-11-21T11:27:23;6.03;;;4.97;;
9467;SDS011;4772;52.382;9.752;2023-11-21T11:32:21;6.17;;;5.03;;
9467;SDS011;4772;52.382;9.752;2023-11-21T11:34:53;6.85;;;5.40;;
9467;SDS011;4772;52.382;9.752;2023-11-21T11:37:21;6.13;;;5.17;;
9467;SDS011;4772;52.382;9.752;2023-11-21T11:39:48;5.10;;;4.30;;
9467;SDS011;4772;52.382;9.752;2023-11-21T11:42:16;5.23;;;4.60;;
9467;SDS011;4772;52.382;9.752;2023-11-21T11:50:00;4.97;;;4.27;;
9467;SDS011;4772;52.382;9.752;2023-11-21T11:55:01;5.33;;;4.43;;
9467;SDS011;4772;52.382;9.752;2023-11-21T11:57:31;7.37;;;4.70;;
9467;SDS011;4772;52.382;9.752;2023-11-21T12:02:46;5.17;;;4.33;;
9467;SDS011;4772;52.382;9.752;2023-11-21T12:05:13;6.90;;;4.83;;
9467;SDS011;4772;52.382;9.752;2023-11-21T12:07:43;6.33;;;5.27;;
9467;SDS011;4772;52.382;9.752;2023-11-21T12:10:20;5.80;;;4.60;;
9467;SDS011;4772;52.382;9.752;2023-11-21T12:12:48;6.57;;;4.73;;
9467;SDS011;4772;52.382;9.752;2023-11-21T12:15:14;4.83;;;4.03;;
9467;SDS011;4772;52.382;9.752;2023-11-21T12:17:41;6.50;;;4.20;;
9467;SDS011;4772;52.382;9.752;2023-11-21T12:20:08;5.53;;;4.30;;
9467;SDS011;4772;52.382;9.752;2023-11-21T12:25:17;5.37;;;4.10;;
9467;SDS011;4772;52.382;9.752;2023-11-21T12:27:45;5.03;;;3.93;;
9467;SDS011;4772;52.382;9.752;2023-11-21T12:30:12;5.60;;;3.87;;
9467;SDS011;4772;52.382;9.752;2023-11-21T12:32:40;4.43;;;3.87;;
9467;SDS011;4772;52.382;9.752;2023-11-21T12:35:07;4.23;;;3.83;;
9467;SDS011;4772;52.382;9.752;2023-11-21T12:37:33;6.20;;;4.80;;
9467;SDS011;4772;52.382;9.752;2023-11-21T12:39:59;4.77;;;3.97;;
9467;SDS011;4772;52.382;9.752;2023-11-21T12:42:25;7.50;;;4.27;;
9467;SDS011;4772;52.382;9.752;2023-11-21T12:47:40;5.33;;;4.80;;
9467;SDS011;4772;52.382;9.752;2023-11-21T12:50:07;8.30;;;5.37;;
9467;SDS011;4772;52.382;9.752;2023-11-21T12:52:39;5.93;;;4.80;;
9467;SDS011;4772;52.382;9.752;2023-11-21T12:55:06;7.93;;;5.33;;
9467;SDS011;4772;52.382;9.752;2023-11-21T12:57:34;6.30;;;4.73;;
9467;SDS011;4772;52.382;9.752;2023-11-21T13:00:03;4.80;;;4.30;;
9467;SDS011;4772;52.382;9.752;2023-11-21T13:02:37;5.00;;;4.50;;
9467;SDS011;4772;52.382;9.752;2023-11-21T13:05:03;7.13;;;5.47;;
9467;SDS011;4772;52.382;9.752;2023-11-21T13:07:41;6.00;;;5.20;;
9467;SDS011;4772;52.382;9.752;2023-11-21T13:10:12;6.53;;;5.20;;
9467;SDS011;4772;52.382;9.752;2023-11-21T13:12:42;8.80;;;5.33;;
9467;SDS011;4772;52.382;9.752;2023-11-21T13:15:09;6.10;;;5.50;;
9467;SDS011;4772;52.382;9.752;2023-11-21T13:17:35;5.47;;;4.87;;
9467;SDS011;4772;52.382;9.752;2023-11-21T13:20:02;5.60;;;4.97;;
9467;SDS011;4772;52.382;9.752;2023-11-21T13:22:32;7.40;;;4.83;;
9467;SDS011;4772;52.382;9.752;2023-11-21T13:24:58;5.70;;;5.20;;
9467;SDS011;4772;52.382;9.752;2023-11-21T13:27:24;5.20;;;4.70;;
9467;SDS011;4772;52.382;9.752;2023-11-21T13:29:51;5.77;;;4.67;;
9467;SDS011;4772;52.382;9.752;2023-11-21T13:32:17;8.60;;;5.47;;
9467;SDS011;4772;52.382;9.752;2023-11-21T13:34:45;5.90;;;4.83;;
9467;SDS011;4772;52.382;9.752;2023-11-21T13:37:12;7.50;;;4.73;;
9467;SDS011;4772;52.382;9.752;2023-11-21T13:39:38;5.30;;;4.80;;
9467;SDS011;4772;52.382;9.752;2023-11-21T13:42:09;5.80;;;4.67;;
9467;SDS011;4772;52.382;9.752;2023-11-21T13:44:36;7.37;;;5.10;;
9467;SDS011;4772;52.382;9.752;2023-11-21T13:47:06;5.93;;;4.70;;
9467;SDS011;4772;52.382;9.752;2023-11-21T13:49:32;6.67;;;4.87;;
9467;SDS011;4772;52.382;9.752;2023-11-21T13:52:05;7.13;;;4.63;;
9467;SDS011;4772;52.382;9.752;2023-11-21T13:54:33;6.33;;;4.60;;
9467;SDS011;4772;52.382;9.752;2023-11-21T13:56:59;6.83;;;5.10;;
9467;SDS011;4772;52.382;9.752;2023-11-21T13:59:25;5.83;;;4.40;;
9467;SDS011;4772;52.382;9.752;2023-11-21T14:01:53;7.20;;;3.77;;
9467;SDS011;4772;52.382;9.752;2023-11-21T14:04:36;4.20;;;3.80;;
9467;SDS011;4772;52.382;9.752;2023-11-21T14:07:27;4.70;;;4.20;;
9467;SDS011;4772;52.382;9.752;2023-11-21T14:10:04;4.63;;;3.83;;
9467;SDS011;4772;52.382;9.752;2023-11-21T14:12:33;5.73;;;3.80;;
9467;SDS011;4772;52.382;9.752;2023-11-21T14:15:01;4.30;;;3.90;;
9467;SDS011;4772;52.382;9.752;2023-11-21T14:17:31;4.13;;;3.73;;
9467;SDS011;4772;52.382;9.752;2023-11-21T14:19:59;6.43;;;3.57;;
9467;SDS011;4772;52.382;9.752;2023-11-21T14:22:44;4.10;;;3.70;;
9467;SDS011;4772;52.382;9.752;2023-11-21T14:25:14;4.93;;;4.00;;
9467;SDS011;4772;52.382;9.752;2023-11-21T14:27:40;4.10;;;3.70;;
9467;SDS011;4772;52.382;9.752;2023-11-21T14:30:12;6.70;;;3.67;;
9467;SDS011;4772;52.382;9.752;2023-11-21T14:32:38;5.43;;;3.70;;
9467;SDS011;4772;52.382;9.752;2023-11-21T14:35:04;5.93;;;4.37;;
9467;SDS011;4772;52.382;9.752;2023-11-21T14:37:30;4.40;;;4.00;;
9467;SDS011;4772;52.382;9.752;2023-11-21T14:39:56;4.53;;;4.13;;
9467;SDS011;4772;52.382;9.752;2023-11-21T14:42:24;5.10;;;4.60;;
9467;SDS011;4772;52.382;9.752;2023-11-21T14:44:54;6.17;;;4.30;;
9467;SDS011;4772;52.382;9.752;2023-11-21T14:47:25;5.23;;;4.20;;
9467;SDS011;4772;52.382;9.752;2023-11-21T14:49:52;6.27;;;4.90;;
9467;SDS011;4772;52.382;9.752;2023-11-21T14:52:19;6.13;;;4.23;;
9467;SDS011;4772;52.382;9.752;2023-11-21T14:55:08;5.83;;;5.23;;
9467;SDS011;4772;52.382;9.752;2023-11-21T14:57:56;6.87;;;5.47;;
9467;SDS011;4772;52.382;9.752;2023-11-21T15:00:25;6.20;;;5.47;;
9467;SDS011;4772;52.382;9.752;2023-11-21T15:03:08;5.30;;;4.80;;
9467;SDS011;4772;52.382;9.752;2023-11-21T15:05:35;8.00;;;4.70;;
9467;SDS011;4772;52.382;9.752;2023-11-21T15:08:04;8.30;;;4.97;;
9467;SDS011;4772;52.382;9.752;2023-11-21T15:10:46;5.20;;;4.40;;
9467;SDS011;4772;52.382;9.752;2023-11-21T15:13:18;7.00;;;5.60;;
9467;SDS011;4772;52.382;9.752;2023-11-21T15:15:44;8.73;;;4.93;;
9467;SDS011;4772;52.382;9.752;2023-11-21T15:18:10;5.73;;;4.47;;
9467;SDS011;4772;52.382;9.752;2023-11-21T15:20:37;7.77;;;4.97;;
9467;SDS011;4772;52.382;9.752;2023-11-21T15:23:03;5.60;;;4.37;;
9467;SDS011;4772;52.382;9.752;2023-11-21T15:25:31;8.77;;;5.30;;